Daugavpils, Latvia
Current Conditions -  °F | °C
As of 7:20 PM on Friday 19 Dec 2014 (Local Time) from EYVI Reporting Station
Moderate Rain Moderate Rain  
Wind Chill: 43°   Ceiling: 100
Heat Index: 46°   Visibility: 1.7mi
Dew Point: 46°   Wind: 7mph
Humidity: 100%   Direction: 190°S
Pressure: 29.41"   Gusts: NA
Location:  55.88°N, 26.51°E
Report Text: EYVI 191620Z 19006KT 2800 RA BR OVC001 08/08 Q0996 R20/2/0395 NOSIG
Loading
Personal Weather Stations






























Interactive Weather Map New forecast layout! Learn more

10-Day Weather Forecast

Advertisements
Track Severe Weather on mobile